Time;durP1;ratioP1;P1;durP2;ratioP2;P2;SDS_P1;SDS_P2;PMS_P1;PMS_P2;Temp;Humidity;BMP_temperature;BMP_pressure;BME280_temperature;BME280_humidity;BME280_pressure;Samples;Min_cycle;Max_cycle;Signal;HPM_P1;HPM_P2
2023/10/20 00:02:10;;;;;;;53.30;47.40;;;;;;;47.08;9.21;98591.69;110123;1263;23647;-79
2023/10/20 00:04:50;;;;;;;57.20;47.70;;;;;;;46.91;9.31;98598.58;110566;1263;21981;-79
2023/10/20 00:07:46;;;;;;;56.30;48.40;;;;;;;47.01;9.50;98607.52;110467;1263;21968;-78
2023/10/20 00:10:34;;;;;;;55.80;48.40;;;;;;;47.21;9.14;98604.31;110421;1263;21991;-78
2023/10/20 00:13:22;;;;;;;58.50;49.70;;;;;;;47.35;9.19;98590.48;110340;1263;22036;-79
2023/10/20 00:16:00;;;;;;;56.50;49.60;;;;;;;47.39;9.05;98581.95;109880;1267;22078;-78
2023/10/20 00:18:54;;;;;;;59.90;49.00;;;;;;;47.38;9.00;98581.20;109779;1268;21974;-79
2023/10/20 00:21:45;;;;;;;;;;;;;;;;;;;;;
2023/10/20 00:24:22;;;;;;;58.30;51.60;;;;;;;47.68;9.01;98551.89;110441;1264;21990;-79
2023/10/20 00:27:10;;;;;;;59.20;52.90;;;;;;;47.81;9.02;98543.45;110310;1264;22306;-78
2023/10/20 00:29:48;;;;;;;59.50;52.80;;;;;;;47.75;8.92;98545.39;109560;1271;21975;-78
2023/10/20 00:32:45;;;;;;;60.00;52.80;;;;;;;47.39;9.12;98547.67;109099;1275;22402;-79
2023/10/20 00:35:18;;;;;;;57.50;51.30;;;;;;;47.53;8.79;98538.75;108914;1276;22863;-80
2023/10/20 00:38:06;;;;;;;61.50;54.90;;;;;;;47.54;9.10;98538.55;108863;1276;22929;-79
2023/10/20 00:40:56;;;;;;;60.30;50.80;;;;;;;47.82;9.03;98537.82;109119;1275;22007;-79
2023/10/20 00:43:40;;;;;;;58.60;52.50;;;;;;;47.81;9.00;98536.52;108420;1282;22003;-78
2023/10/20 00:46:15;;;;;;;60.30;54.00;;;;;;;47.87;8.90;98532.59;108735;1281;21861;-77
2023/10/20 00:48:51;;;;;;;59.30;53.00;;;;;;;47.63;8.97;98532.10;109169;1275;21854;-80
2023/10/20 00:51:27;;;;;;;63.20;51.70;;;;;;;47.35;9.19;98538.24;109525;1271;21978;-78
2023/10/20 00:54:20;;;;;;;56.30;50.30;;;;;;;47.35;9.34;98540.80;109429;1271;21976;-80
2023/10/20 00:57:14;;;;;;;55.70;49.30;;;;;;;47.41;9.32;98549.03;109215;1273;22344;-78
2023/10/20 00:59:50;;;;;;;58.20;51.00;;;;;;;47.47;9.04;98546.46;109318;1271;22278;-79
2023/10/20 01:02:29;;;;;;;56.50;50.20;;;;;;;47.48;9.17;98546.02;109399;1271;23794;-80
2023/10/20 01:05:27;;;;;;;57.00;46.60;;;;;;;47.77;8.94;98543.29;108898;1275;23833;-78
2023/10/20 01:08:10;;;;;;;53.30;47.70;;;;;;;47.79;8.97;98544.19;108892;1276;21987;-78
2023/10/20 01:10:49;;;;;;;52.30;46.50;;;;;;;47.68;9.20;98551.59;109139;1276;21990;-81
2023/10/20 01:13:26;;;;;;;56.10;48.90;;;;;;;47.64;9.15;98562.05;108886;1276;23043;-78
2023/10/20 01:16:12;;;;;;;52.60;47.10;;;;;;;47.65;9.21;98564.46;108574;1279;21988;-79
2023/10/20 01:18:55;;;;;;;56.00;48.60;;;;;;;47.77;9.04;98555.65;109140;1275;21986;-80
2023/10/20 01:21:33;;;;;;;57.80;49.20;;;;;;;47.72;9.20;98552.34;109090;1278;22432;-80
2023/10/20 01:24:16;;;;;;;57.10;46.70;;;;;;;47.90;8.94;98539.45;109289;1273;23630;-79
2023/10/20 01:27:03;;;;;;;57.70;48.00;;;;;;;47.87;8.83;98527.35;109294;1273;22605;-78
2023/10/20 01:29:43;;;;;;;52.10;46.50;;;;;;;47.92;8.93;98518.91;109310;1273;22833;-77
2023/10/20 01:32:18;;;;;;;52.90;47.10;;;;;;;47.92;8.99;98519.15;109157;1273;23729;-78
2023/10/20 01:34:55;;;;;;;57.80;51.00;;;;;;;48.09;8.91;98520.80;110017;1267;21974;-77
2023/10/20 01:37:38;;;;;;;55.70;47.40;;;;;;;47.95;9.03;98519.16;109149;1273;22018;-79
2023/10/20 01:40:19;;;;;;;56.60;49.10;;;;;;;47.80;9.01;98522.91;109934;1266;22932;-77
2023/10/20 01:42:59;;;;;;;58.50;50.30;;;;;;;47.66;9.05;98529.04;109744;1269;21982;-78
2023/10/20 01:45:35;;;;;;;56.80;49.90;;;;;;;47.69;9.05;98523.70;109855;1269;21981;-77
2023/10/20 01:48:09;;;;;;;55.10;49.10;;;;;;;47.86;8.76;98520.48;109322;1271;21990;-79
2023/10/20 01:50:59;;;;;;;55.40;49.40;;;;;;;47.81;8.78;98526.70;109390;1271;21984;-79
2023/10/20 01:53:41;;;;;;;54.80;48.90;;;;;;;47.73;9.02;98520.98;109534;1270;22007;-80
2023/10/20 01:56:18;;;;;;;53.50;47.90;;;;;;;47.76;8.88;98517.50;110024;1267;22272;-79
2023/10/20 01:59:01;;;;;;;59.40;50.60;;;;;;;47.82;8.88;98516.73;109639;1271;22051;-79
2023/10/20 02:01:41;;;;;;;57.00;49.30;;;;;;;47.61;8.88;98516.64;109765;1269;21973;-78
2023/10/20 02:04:41;;;;;;;58.90;49.20;;;;;;;47.46;9.03;98518.65;109958;1269;21973;-78
2023/10/20 02:07:27;;;;;;;56.90;50.00;;;;;;;47.65;9.01;98512.42;110253;1266;22669;-81
2023/10/20 02:10:27;;;;;;;60.10;50.50;;;;;;;47.78;9.07;98500.42;110159;1266;22783;-79
2023/10/20 02:13:06;;;;;;;66.30;52.50;;;;;;;47.60;9.08;98498.92;109812;1269;21984;-82
2023/10/20 02:15:55;;;;;;;59.50;50.80;;;;;;;47.50;9.00;98494.69;109669;1269;23613;-77
2023/10/20 02:18:32;;;;;;;55.00;47.30;;;;;;;47.37;9.18;98496.98;109795;1268;21987;-79
2023/10/20 02:21:04;;;;;;;55.20;49.40;;;;;;;47.28;8.94;98505.21;109558;1268;21975;-77
2023/10/20 02:23:41;;;;;;;55.50;46.70;;;;;;;47.31;9.08;98508.94;109357;1268;22917;-77
2023/10/20 02:26:15;;;;;;;53.70;46.70;;;;;;;47.36;9.02;98513.52;109448;1256;23093;-78
2023/10/20 02:29:11;;;;;;;54.00;45.90;;;;;;;47.36;8.96;98517.38;109519;1268;23644;-79
2023/10/20 02:31:51;;;;;;;53.40;45.90;;;;;;;47.42;9.13;98517.23;110032;1263;23744;-78
2023/10/20 02:34:35;;;;;;;51.50;45.00;;;;;;;47.59;9.37;98511.91;110206;1263;21966;-78
2023/10/20 02:37:12;;;;;;;56.00;47.80;;;;;;;47.61;9.25;98507.02;110351;1260;21960;-78
2023/10/20 02:39:54;;;;;;;;;;;;;;;;;;;;;
2023/10/20 02:42:29;;;;;;;57.00;49.00;;;;;;;47.57;9.00;98496.64;109994;1267;22051;-79
2023/10/20 02:45:09;;;;;;;54.10;47.60;;;;;;;47.55;9.19;98493.09;109796;1266;24301;-79
2023/10/20 02:47:58;;;;;;;60.60;47.00;;;;;;;47.46;9.12;98492.91;109814;1266;21976;-79
2023/10/20 02:50:46;;;;;;;55.90;47.60;;;;;;;47.52;8.96;98492.92;110040;1266;21970;-79
2023/10/20 02:53:20;;;;;;;54.80;47.10;;;;;;;47.63;8.98;98495.55;110004;1266;21970;-79
2023/10/20 02:56:01;;;;;;;56.90;45.50;;;;;;;47.76;9.10;98499.17;109976;1266;23606;-79
2023/10/20 02:59:00;;;;;;;54.70;46.10;;;;;;;47.62;9.05;98495.98;109504;1266;22910;-79
2023/10/20 03:01:49;;;;;;;57.10;48.20;;;;;;;47.71;9.00;98489.86;109697;1270;21988;-79
2023/10/20 03:04:35;;;;;;;55.20;47.00;;;;;;;47.53;8.92;98488.98;109137;1275;24389;-80
2023/10/20 03:07:18;;;;;;;50.30;44.80;;;;;;;47.52;9.23;98486.71;109170;1270;23054;-78
2023/10/20 03:09:51;;;;;;;52.90;45.70;;;;;;;47.59;9.11;98484.38;109212;1274;22045;-79
2023/10/20 03:12:26;;;;;;;53.70;44.90;;;;;;;47.50;8.90;98482.37;109134;1273;23024;-80
2023/10/20 03:15:04;;;;;;;58.20;46.50;;;;;;;47.41;8.87;98483.42;109171;1273;22972;-77
2023/10/20 03:17:36;;;;;;;58.20;48.70;;;;;;;47.25;9.27;98488.95;109546;1269;23706;-79
2023/10/20 03:20:15;;;;;;;54.90;47.60;;;;;;;47.28;9.50;98494.71;109170;1274;22067;-79
2023/10/20 03:22:58;;;;;;;57.80;45.70;;;;;;;47.33;9.40;98494.16;109634;1269;21963;-79
2023/10/20 03:25:41;;;;;;;52.40;44.30;;;;;;;47.35;9.33;98497.45;110138;1269;23066;-80
2023/10/20 03:28:16;;;;;;;52.50;45.60;;;;;;;47.46;9.33;98494.79;109385;1273;22157;-79
2023/10/20 03:30:57;;;;;;;54.40;45.50;;;;;;;47.68;9.03;98487.98;109506;1274;22009;-79
2023/10/20 03:33:48;;;;;;;56.00;48.00;;;;;;;47.78;9.07;98481.69;109413;1271;21990;-79
2023/10/20 03:36:30;;;;;;;58.30;49.60;;;;;;;47.43;9.25;98484.02;109807;1271;23747;-79
2023/10/20 03:39:22;;;;;;;55.10;47.50;;;;;;;47.30;8.97;98478.67;110110;1264;21977;-79
2023/10/20 03:41:55;;;;;;;60.30;50.00;;;;;;;47.23;9.25;98480.75;109612;1268;23599;-80
2023/10/20 03:44:33;;;;;;;53.90;47.60;;;;;;;47.12;9.18;98487.17;109926;1262;23606;-79
2023/10/20 03:47:13;;;;;;;53.70;46.30;;;;;;;47.34;9.04;98484.27;110115;1264;22644;-78
2023/10/20 03:50:01;;;;;;;;;;;;;;;;;;;;;
2023/10/20 03:52:49;;;;;;;52.10;41.70;;;;;;;47.21;9.19;98482.27;110189;1264;22024;-78
2023/10/20 03:55:23;;;;;;;51.90;42.70;;;;;;;47.21;9.46;98484.09;110352;1264;21974;-79
2023/10/20 03:57:55;;;;;;;51.50;43.60;;;;;;;47.21;9.34;98477.86;110234;1264;22284;-82
2023/10/20 04:00:41;;;;;;;45.80;40.90;;;;;;;47.15;9.39;98474.98;110593;1254;22070;-79
2023/10/20 04:03:32;;;;;;;48.10;40.70;;;;;;;47.29;9.34;98468.94;111084;1257;22189;-81
2023/10/20 04:06:15;;;;;;;47.50;41.40;;;;;;;47.39;8.97;98452.42;110847;1262;23037;-81
2023/10/20 04:09:13;;;;;;;44.80;40.00;;;;;;;47.56;9.04;98448.14;110631;1262;21961;-79
2023/10/20 04:11:50;;;;;;;;;;;;;;;47.40;9.32;98452.39;110868;1262;21956;-79
2023/10/20 04:14:30;;;;;;;43.60;37.50;;;;;;;47.61;9.09;98456.50;110652;1262;21989;-79
2023/10/20 04:17:51;;;;;;;43.10;38.50;;;;;;;46.80;9.67;98467.29;108050;1293;544103;-79
2023/10/20 04:20:30;;;;;;;41.90;35.90;;;;;;;47.28;9.27;98467.16;110884;1259;21962;-79
2023/10/20 04:23:59;;;;;;;41.60;35.40;;;;;;;47.44;8.96;98462.60;111202;1259;23754;-78
2023/10/20 04:26:32;;;;;;;38.30;33.90;;;;;;;47.59;9.42;98453.15;111313;1258;23516;-79
2023/10/20 04:29:34;;;;;;;39.80;34.30;;;;;;;47.41;9.14;98453.83;111656;1258;21979;-80
2023/10/20 04:44:51;;;;;;;32.90;29.10;;;;;;;47.26;9.30;98452.98;110326;1262;22016;-78
2023/10/20 04:49:58;;;;;;;32.30;29.00;;;;;;;47.10;9.41;98455.81;109325;1266;21976;-77
2023/10/20 04:52:57;;;;;;;35.00;30.20;;;;;;;47.05;9.33;98454.39;109318;1269;23612;-77
2023/10/20 04:59:39;;;;;;;37.10;33.10;;;;;;;47.24;9.39;98443.37;109782;1267;21994;-75
2023/10/20 05:02:33;;;;;;;38.10;33.80;;;;;;;47.21;9.38;98440.44;109843;1267;22866;-77
2023/10/20 05:05:26;;;;;;;33.80;30.20;;;;;;;47.20;9.30;98444.05;109572;1257;21974;-78
2023/10/20 05:08:05;;;;;;;37.00;30.90;;;;;;;46.96;9.31;98446.98;109699;1269;24321;-78
2023/10/20 05:10:42;;;;;;;36.60;32.20;;;;;;;46.91;9.38;98447.52;109996;1266;21976;-77
2023/10/20 05:13:32;;;;;;;35.70;31.60;;;;;;;47.30;9.27;98449.00;109919;1261;21962;-77
2023/10/20 05:16:33;;;;;;;39.80;30.90;;;;;;;47.27;9.10;98453.08;110525;1261;24325;-78
2023/10/20 05:19:19;;;;;;;35.20;30.20;;;;;;;47.24;9.18;98459.00;109755;1268;23736;-77
2023/10/20 05:22:09;;;;;;;;;;;;;;;47.25;9.15;98469.19;109952;1269;23608;-76
2023/10/20 05:24:42;;;;;;;36.20;30.30;;;;;;;47.52;9.03;98464.99;109914;1268;22390;-76
2023/10/20 05:27:16;;;;;;;34.50;30.80;;;;;;;47.40;9.10;98466.52;109991;1268;23583;-76
2023/10/20 05:29:57;;;;;;;37.40;30.30;;;;;;;47.19;9.13;98466.50;109964;1267;21980;-77
2023/10/20 05:32:41;;;;;;;35.10;27.20;;;;;;;47.42;9.09;98468.47;109936;1268;23733;-76
2023/10/20 05:35:15;;;;;;;29.90;26.50;;;;;;;47.49;9.36;98471.27;110094;1259;22233;-77
2023/10/20 05:37:52;;;;;;;29.20;25.00;;;;;;;47.44;9.31;98457.95;109963;1262;22181;-77
2023/10/20 05:40:28;;;;;;;26.30;23.10;;;;;;;47.21;9.34;98448.17;109704;1268;23707;-77
2023/10/20 05:43:03;;;;;;;27.40;23.20;;;;;;;46.97;9.20;98446.14;109828;1261;22027;-77
2023/10/20 05:45:40;;;;;;;25.60;22.60;;;;;;;46.92;9.24;98441.52;110602;1261;22002;-78
2023/10/20 05:48:13;;;;;;;24.10;21.50;;;;;;;47.09;9.30;98449.27;110553;1261;22010;-78
2023/10/20 05:50:44;;;;;;;26.30;22.50;;;;;;;46.99;9.46;98454.89;110167;1261;23050;-77
2023/10/20 05:53:21;;;;;;;28.20;21.50;;;;;;;47.18;9.33;98451.77;110532;1261;22452;-78
2023/10/20 05:55:59;;;;;;;27.30;21.80;;;;;;;47.45;9.22;98452.84;110233;1258;23123;-77
2023/10/20 05:58:32;;;;;;;25.60;21.90;;;;;;;47.44;9.07;98459.45;110284;1256;23706;-76
2023/10/20 06:01:09;;;;;;;26.70;21.80;;;;;;;47.50;9.24;98452.52;110908;1256;24431;-77
2023/10/20 06:03:51;;;;;;;26.50;21.50;;;;;;;47.42;9.15;98447.14;110818;1256;23679;-80
2023/10/20 06:06:31;;;;;;;26.10;21.90;;;;;;;47.39;9.30;98444.52;110920;1256;21962;-78
2023/10/20 06:09:29;;;;;;;28.50;22.40;;;;;;;47.56;9.18;98442.14;111006;1256;22999;-77
2023/10/20 06:12:13;;;;;;;26.20;23.40;;;;;;;47.58;9.11;98433.88;110954;1256;22795;-78
2023/10/20 06:14:54;;;;;;;25.00;22.20;;;;;;;47.68;8.96;98428.65;110894;1253;22455;-79
2023/10/20 06:17:44;;;;;;;28.10;21.60;;;;;;;47.57;9.04;98422.89;111038;1256;21960;-80
2023/10/20 06:20:26;;;;;;;25.20;21.10;;;;;;;47.38;9.07;98428.64;111072;1256;21975;-80
2023/10/20 06:23:23;;;;;;;25.60;20.40;;;;;;;47.28;9.08;98432.99;111014;1256;22681;-78
2023/10/20 06:25:56;;;;;;;24.80;20.10;;;;;;;46.97;9.36;98430.00;110779;1260;21962;-79
2023/10/20 06:28:26;;;;;;;30.00;21.70;;;;;;;46.96;9.55;98427.29;110229;1260;23779;-79
2023/10/20 06:31:00;;;;;;;23.60;20.00;;;;;;;47.01;9.25;98426.50;110372;1260;22452;-77
2023/10/20 06:33:34;;;;;;;29.00;23.40;;;;;;;47.00;9.51;98418.51;110547;1256;22123;-78
2023/10/20 06:36:10;;;;;;;26.20;22.10;;;;;;;47.04;9.46;98419.56;110427;1260;23767;-76
2023/10/20 06:41:43;;;;;;;23.20;20.40;;;;;;;46.90;9.43;98414.64;110509;1260;23097;-80
2023/10/20 06:44:21;;;;;;;26.70;21.40;;;;;;;47.05;9.38;98416.29;110834;1256;21968;-79
2023/10/20 06:47:01;;;;;;;25.70;20.90;;;;;;;47.11;9.40;98418.22;110895;1256;21960;-77
2023/10/20 06:49:47;;;;;;;22.60;20.20;;;;;;;47.03;9.47;98421.27;111052;1256;21965;-77
2023/10/20 06:52:27;;;;;;;24.10;20.10;;;;;;;47.20;9.51;98416.66;110541;1262;23747;-77
2023/10/20 06:55:09;;;;;;;25.20;22.10;;;;;;;47.14;9.32;98412.23;109835;1268;21981;-77
2023/10/20 06:58:12;;;;;;;24.60;21.90;;;;;;;47.09;9.44;98411.67;109834;1268;21986;-77
2023/10/20 07:00:56;;;;;;;25.40;21.80;;;;;;;47.09;9.50;98405.38;109722;1268;22903;-77
2023/10/20 07:03:32;;;;;;;23.40;20.30;;;;;;;47.26;9.46;98399.89;110074;1268;21976;-77
2023/10/20 07:06:10;;;;;;;22.70;19.40;;;;;;;47.38;9.37;98396.78;109533;1268;22038;-77
2023/10/20 07:08:41;;;;;;;24.20;20.20;;;;;;;47.27;9.30;98401.66;109312;1273;21983;-78
2023/10/20 07:11:23;;;;;;;24.50;21.90;;;;;;;47.20;9.31;98403.95;109652;1257;23017;-77
2023/10/20 07:14:04;;;;;;;22.80;20.30;;;;;;;47.34;9.28;98406.76;109627;1267;23628;-77
2023/10/20 07:16:48;;;;;;;24.00;20.90;;;;;;;47.55;9.36;98410.83;109573;1261;21970;-78
2023/10/20 07:19:28;;;;;;;27.00;22.30;;;;;;;47.81;9.20;98409.77;109882;1261;23591;-81
2023/10/20 07:22:05;;;;;;;27.40;21.70;;;;;;;47.84;9.23;98404.95;110348;1261;21979;-79
2023/10/20 07:24:53;;;;;;;23.40;20.60;;;;;;;47.79;9.10;98397.85;110366;1261;22710;-78
2023/10/20 07:27:38;;;;;;;26.40;21.20;;;;;;;47.70;9.06;98388.52;110821;1256;23600;-79
2023/10/20 07:30:10;;;;;;;26.40;20.30;;;;;;;47.63;9.21;98382.73;111251;1256;22554;-79
2023/10/20 07:32:49;;;;;;;22.30;19.90;;;;;;;47.74;9.10;98370.54;110846;1256;21957;-78
2023/10/20 07:35:27;;;;;;;22.20;19.00;;;;;;;47.68;8.99;98365.41;110985;1256;21960;-78
2023/10/20 07:38:17;;;;;;;23.20;19.90;;;;;;;47.62;8.95;98363.11;110872;1251;21974;-79
2023/10/20 07:41:14;;;;;;;21.50;18.10;;;;;;;47.77;9.11;98367.00;111202;1256;22752;-78
2023/10/20 07:43:59;;;;;;;24.50;19.90;;;;;;;47.77;9.23;98365.73;111096;1256;21965;-77
2023/10/20 07:46:55;;;;;;;22.90;18.80;;;;;;;47.81;9.23;98357.78;110838;1256;21987;-81
2023/10/20 07:49:28;;;;;;;22.80;20.30;;;;;;;47.77;9.22;98359.57;111271;1256;23742;-82
2023/10/20 07:52:04;;;;;;;22.50;19.20;;;;;;;47.94;9.29;98362.89;110771;1245;21958;-80
2023/10/20 07:55:08;;;;;;;22.40;19.90;;;;;;;48.26;9.18;98375.17;110468;1261;21982;-80
2023/10/20 07:57:55;;;;;;;22.90;20.30;;;;;;;48.19;9.13;98370.02;110436;1261;22042;-80
2023/10/20 08:00:34;;;;;;;23.50;20.10;;;;;;;48.15;9.16;98361.61;109655;1268;21976;-79
2023/10/20 08:03:12;;;;;;;25.30;20.40;;;;;;;48.21;8.85;98358.77;110010;1268;23625;-79
2023/10/20 08:05:54;;;;;;;27.70;21.70;;;;;;;48.26;8.96;98357.00;109861;1268;21978;-80
2023/10/20 08:08:39;;;;;;;24.50;20.70;;;;;;;48.53;8.99;98362.17;109734;1268;21976;-79
2023/10/20 08:11:25;;;;;;;23.10;18.90;;;;;;;48.48;8.82;98362.35;109754;1268;22031;-78
2023/10/20 08:14:12;;;;;;;22.80;20.30;;;;;;;48.31;8.95;98360.21;110314;1262;21975;-80
2023/10/20 08:16:51;;;;;;;22.10;19.70;;;;;;;47.97;9.22;98351.49;109465;1268;23591;-80
2023/10/20 08:19:32;;;;;;;24.80;21.90;;;;;;;47.80;9.34;98352.55;109760;1265;22040;-79
2023/10/20 08:22:07;;;;;;;26.20;21.30;;;;;;;47.99;9.33;98337.02;109627;1271;23751;-79
2023/10/20 08:24:58;;;;;;;24.00;21.40;;;;;;;47.85;9.23;98326.00;109606;1270;22014;-80
2023/10/20 08:27:36;;;;;;;22.90;20.40;;;;;;;47.70;9.20;98318.74;109552;1270;22766;-78
2023/10/20 08:30:32;;;;;;;27.40;23.00;;;;;;;47.71;9.22;98313.46;109579;1271;23044;-88
2023/10/20 08:33:40;;;;;;;;;;;;;;;47.88;9.05;98317.64;110051;1271;23140;-87
2023/10/20 08:37:02;;;;;;;21.40;18.60;;;;;;;48.21;9.13;98319.80;109812;1266;21977;-79
2023/10/20 08:39:55;;;;;;;23.00;19.60;;;;;;;47.93;9.30;98326.52;110072;1261;21971;-82
2023/10/20 08:42:45;;;;;;;21.70;19.30;;;;;;;48.09;9.37;98325.20;110578;1261;23332;-79
2023/10/20 08:45:37;;;;;;;25.80;22.10;;;;;;;48.05;9.07;98324.40;110442;1258;23692;-79
2023/10/20 08:48:50;;;;;;;24.20;20.10;;;;;;;48.05;9.14;98327.30;110381;1261;24338;-77
2023/10/20 08:52:36;;;;;;;24.30;19.90;;;;;;;48.17;9.19;98311.96;110316;1259;23029;-79
2023/10/20 08:55:43;;;;;;;27.00;21.70;;;;;;;48.46;9.24;98300.11;109702;1269;23705;-79
2023/10/20 08:58:56;;;;;;;22.70;20.30;;;;;;;48.34;9.16;98311.59;109658;1269;22586;-81
2023/10/20 09:01:44;;;;;;;24.20;21.70;;;;;;;48.11;9.23;98315.76;109688;1269;22730;-79
2023/10/20 09:04:33;;;;;;;23.40;19.60;;;;;;;48.09;9.12;98313.56;109121;1274;23051;-82
2023/10/20 09:07:51;;;;;;;27.00;22.00;;;;;;;48.48;9.02;98311.98;109256;1271;21981;-82
2023/10/20 09:10:49;;;;;;;23.10;20.60;;;;;;;48.92;8.94;98309.54;109083;1272;22462;-78
2023/10/20 09:13:56;;;;;;;22.90;20.50;;;;;;;48.98;8.99;98306.41;109074;1275;23896;-79
2023/10/20 09:17:22;;;;;;;24.30;21.70;;;;;;;48.86;9.04;98299.42;109095;1275;21598;-82
2023/10/20 09:20:21;;;;;;;23.00;19.60;;;;;;;48.68;8.96;98296.35;108865;1278;23036;-79
2023/10/20 09:23:35;;;;;;;21.10;18.00;;;;;;;48.55;9.00;98296.14;108724;1282;21991;-83
2023/10/20 09:26:44;;;;;;;22.00;19.50;;;;;;;48.55;8.91;98288.45;108605;1286;23060;-83
2023/10/20 09:29:44;;;;;;;20.50;18.30;;;;;;;48.41;9.26;98284.57;108461;1286;22014;-83
2023/10/20 09:32:42;;;;;;;21.00;17.80;;;;;;;48.45;9.01;98281.02;109052;1276;21983;-86
2023/10/20 09:36:23;;;;;;;21.50;19.10;;;;;;;48.30;8.93;98282.25;109007;1279;22419;-85
2023/10/20 09:39:42;;;;;;;22.50;19.30;;;;;;;48.40;8.98;98280.27;109289;1276;21982;-84
2023/10/20 09:43:51;;;;;;;23.10;20.40;;;;;;;48.46;9.10;98273.94;109426;1273;21973;-87
2023/10/20 09:47:15;;;;;;;21.30;19.20;;;;;;;48.47;9.22;98255.16;108907;1282;23145;-86
2023/10/20 09:50:06;;;;;;;23.80;20.30;;;;;;;48.32;9.30;98246.91;108933;1282;24192;-84
2023/10/20 09:53:21;;;;;;;22.70;20.40;;;;;;;48.40;9.30;98234.28;109118;1278;23151;-76
2023/10/20 09:56:17;;;;;;;21.60;18.80;;;;;;;48.30;9.26;98230.41;109065;1278;23052;-83
2023/10/20 09:59:45;;;;;;;24.20;21.70;;;;;;;48.16;9.09;98229.93;109468;1274;22072;-84
2023/10/20 10:03:08;;;;;;;23.30;21.00;;;;;;;48.11;9.53;98234.46;109469;1274;22083;-86
2023/10/20 10:05:59;;;;;;;24.60;21.00;;;;;;;48.19;9.23;98229.36;109141;1274;23644;-84
2023/10/20 10:08:44;;;;;;;26.60;21.80;;;;;;;48.11;9.27;98230.36;109145;1279;24444;-82
2023/10/20 10:11:41;;;;;;;25.80;22.90;;;;;;;48.19;9.18;98239.88;108863;1282;22009;-83
2023/10/20 10:15:12;;;;;;;26.20;23.40;;;;;;;48.39;9.22;98247.07;108947;1282;23297;-84
2023/10/20 10:18:15;;;;;;;26.00;23.30;;;;;;;48.42;9.30;98241.36;108952;1282;23695;-85
2023/10/20 10:21:11;;;;;;;27.90;23.00;;;;;;;48.54;9.27;98220.34;109874;1271;22007;-85
2023/10/20 10:24:58;;;;;;;24.80;22.00;;;;;;;48.35;9.36;98226.88;109779;1271;21962;-85
2023/10/20 10:28:19;;;;;;;28.00;23.30;;;;;;;48.22;9.20;98221.07;109452;1271;21956;-82
2023/10/20 10:31:07;;;;;;;36.10;28.70;;;;;;;48.35;9.27;98216.38;109226;1275;21988;-84
2023/10/20 10:33:52;;;;;;;;;;;;;;;;;;;;;
2023/10/20 10:36:41;;;;;;;28.50;23.60;;;;;;;48.52;9.15;98182.21;109716;1268;22931;-82
2023/10/20 10:39:37;;;;;;;28.10;22.20;;;;;;;48.60;9.26;98185.08;109507;1276;22495;-87
2023/10/20 10:42:54;;;;;;;;;;;;;;;;;;;;;
2023/10/20 10:45:36;;;;;;;;;;;;;;;48.43;9.14;98197.59;109350;1276;21967;-87
2023/10/20 10:48:28;;;;;;;24.00;21.30;;;;;;;48.42;9.19;98201.59;109361;1275;22450;-85
2023/10/20 10:51:10;;;;;;;23.80;20.60;;;;;;;48.19;9.28;98202.83;109328;1275;22059;-86
2023/10/20 10:53:52;;;;;;;24.40;20.50;;;;;;;48.00;9.52;98204.27;109416;1275;22756;-87
2023/10/20 10:56:46;;;;;;;23.00;20.50;;;;;;;47.97;9.48;98202.52;109382;1270;22460;-85
2023/10/20 10:59:45;;;;;;;25.00;19.90;;;;;;;47.88;9.38;98199.08;109894;1270;22001;-87
2023/10/20 11:02:40;;;;;;;24.70;21.20;;;;;;;48.14;9.20;98197.88;109885;1270;21995;-84
2023/10/20 11:05:38;;;;;;;25.50;20.30;;;;;;;48.38;9.13;98204.20;110080;1265;23762;-85
2023/10/20 11:08:48;;;;;;;25.90;22.50;;;;;;;48.37;9.28;98204.73;110445;1264;21985;-87
2023/10/20 11:12:06;;;;;;;29.00;22.20;;;;;;;48.23;9.24;98209.94;110693;1251;23037;-87
2023/10/20 11:15:19;;;;;;;26.20;20.90;;;;;;;48.20;9.14;98220.48;110771;1264;22279;-85
2023/10/20 11:18:10;;;;;;;24.80;20.50;;;;;;;48.15;9.35;98220.27;110368;1266;21969;-86
2023/10/20 11:21:16;;;;;;;20.60;18.20;;;;;;;48.39;9.08;98215.14;110533;1259;22009;-85
2023/10/20 11:24:46;;;;;;;23.60;19.50;;;;;;;48.33;9.15;98223.69;110616;1266;21937;-85
2023/10/20 11:27:56;;;;;;;;;;;;;;;;;;;;;
2023/10/20 11:31:08;;;;;;;24.30;21.10;;;;;;;48.36;9.13;98215.38;110243;1266;21976;-85
2023/10/20 11:33:51;;;;;;;29.80;21.30;;;;;;;48.28;9.22;98218.33;109720;1266;21984;-86
2023/10/20 11:36:28;;;;;;;29.10;23.10;;;;;;;48.32;9.23;98218.21;109613;1272;22014;-84
2023/10/20 11:39:29;;;;;;;24.60;20.00;;;;;;;48.16;9.13;98218.95;109195;1274;22091;-85
2023/10/20 11:42:12;;;;;;;25.90;23.10;;;;;;;48.05;9.22;98218.22;109152;1277;23001;-85
2023/10/20 11:44:46;;;;;;;25.00;20.40;;;;;;;48.26;9.17;98221.63;108983;1282;21833;-86
2023/10/20 11:48:01;;;;;;;25.70;21.30;;;;;;;48.35;9.08;98217.16;109205;1278;22003;-87
2023/10/20 11:50:46;;;;;;;29.00;21.20;;;;;;;48.38;9.17;98222.30;109055;1278;22018;-87
2023/10/20 11:54:11;;;;;;;29.10;21.50;;;;;;;48.49;9.03;98212.58;109540;1273;23750;-87
2023/10/20 11:57:33;;;;;;;24.20;21.60;;;;;;;48.79;8.98;98205.48;109676;1273;22026;-86
2023/10/20 12:00:24;;;;;;;22.00;19.70;;;;;;;48.67;8.98;98201.88;109455;1275;22005;-83
2023/10/20 12:03:25;;;;;;;21.80;19.40;;;;;;;48.60;9.21;98197.00;109452;1271;21976;-82
2023/10/20 12:10:07;;;;;;;;;;;;;;;;;;;;;
2023/10/20 12:13:12;;;;;;;;;;;;;;;;;;;;;
2023/10/20 12:15:52;;;;;;;26.40;21.40;;;;;;;48.53;9.19;98202.56;109242;1270;21993;-84
2023/10/20 12:18:34;;;;;;;22.60;20.10;;;;;;;48.15;9.27;98196.40;108991;1276;22225;-79
2023/10/20 12:21:28;;;;;;;25.50;22.20;;;;;;;48.15;9.27;98186.44;109299;1276;24400;-80
2023/10/20 12:24:09;;;;;;;24.80;20.90;;;;;;;47.67;9.36;98182.95;108797;1281;21990;-79
2023/10/20 12:26:48;;;;;;;23.40;20.30;;;;;;;47.86;9.28;98181.73;108990;1281;22033;-80
2023/10/20 12:30:00;;;;;;;23.10;20.50;;;;;;;48.18;9.16;98168.42;108893;1281;22525;-78
2023/10/20 12:33:05;;;;;;;22.30;20.00;;;;;;;48.40;9.15;98166.63;109197;1271;22450;-85
2023/10/20 12:36:20;;;;;;;22.00;19.60;;;;;;;48.19;9.26;98151.53;109822;1265;23660;-79
2023/10/20 12:39:00;;;;;;;24.10;19.80;;;;;;;47.91;9.34;98156.10;109638;1270;22034;-79
2023/10/20 12:42:07;;;;;;;21.00;18.50;;;;;;;47.72;9.40;98151.94;109930;1266;21978;-79
2023/10/20 12:44:46;;;;;;;23.10;19.30;;;;;;;47.70;9.55;98147.23;110500;1263;21986;-81
2023/10/20 12:47:36;;;;;;;22.70;20.20;;;;;;;47.79;9.35;98139.39;110387;1263;23599;-81
2023/10/20 12:50:21;;;;;;;25.30;21.60;;;;;;;47.85;9.48;98137.15;110843;1263;22101;-78
2023/10/20 12:53:15;;;;;;;22.90;18.60;;;;;;;48.07;9.37;98136.02;110405;1267;22021;-79
2023/10/20 12:55:56;;;;;;;28.40;20.20;;;;;;;47.81;9.40;98135.33;109561;1272;21994;-80
2023/10/20 12:59:07;;;;;;;24.50;20.20;;;;;;;47.57;9.57;98140.12;109769;1269;22865;-80
2023/10/20 13:02:18;;;;;;;21.30;19.00;;;;;;;47.69;9.19;98138.13;109516;1273;22514;-78
2023/10/20 13:05:19;;;;;;;21.90;19.70;;;;;;;47.63;9.54;98143.27;109651;1273;22005;-82
2023/10/20 13:08:37;;;;;;;21.20;19.00;;;;;;;47.94;9.16;98137.07;109725;1272;21980;-84
2023/10/20 13:11:54;;;;;;;;;;;;;;;;;;;;;
2023/10/20 13:15:09;;;;;;;19.80;17.60;;;;;;;48.16;9.27;98136.14;111110;1255;23580;-81
2023/10/20 13:18:01;;;;;;;19.90;17.30;;;;;;;48.19;9.20;98131.70;110543;1261;23942;-80
2023/10/20 13:21:11;;;;;;;;;;;;;;;;;;;;;
2023/10/20 13:23:57;;;;;;;20.90;18.60;;;;;;;48.48;9.03;98121.80;110016;1266;22035;-78
2023/10/20 13:27:00;;;;;;;23.00;19.70;;;;;;;48.30;9.22;98120.89;109612;1270;22683;-79
2023/10/20 13:29:45;;;;;;;21.60;19.00;;;;;;;47.85;9.31;98121.86;109711;1270;22008;-78
2023/10/20 13:32:35;;;;;;;24.30;19.60;;;;;;;47.86;9.28;98132.05;109436;1271;21998;-79
2023/10/20 13:35:22;;;;;;;24.10;21.60;;;;;;;47.91;9.27;98122.45;109266;1269;22055;-80
2023/10/20 13:38:09;;;;;;;21.80;19.20;;;;;;;47.86;9.29;98125.91;109581;1271;22942;-78
2023/10/20 13:40:44;;;;;;;23.20;18.60;;;;;;;47.63;9.38;98133.80;110229;1264;22064;-80
2023/10/20 13:43:28;;;;;;;23.00;20.60;;;;;;;47.50;9.51;98131.43;110213;1266;21982;-78